createdAt,value
2018-05-18T00:00:53.064Z,0
2018-05-18T00:02:03.051Z,0
2018-05-18T00:03:12.247Z,0
2018-05-18T00:04:22.269Z,0
2018-05-18T00:05:31.734Z,0
2018-05-18T00:06:40.939Z,0
2018-05-18T00:07:50.129Z,0
2018-05-18T00:08:59.835Z,0
2018-05-18T00:10:09.325Z,0
2018-05-18T00:11:19.041Z,0
2018-05-18T00:12:27.954Z,0
2018-05-18T00:13:37.637Z,0
2018-05-18T00:14:47.324Z,0
2018-05-18T00:15:56.295Z,0
2018-05-18T00:17:05.218Z,0
2018-05-18T00:18:14.381Z,0
2018-05-18T00:19:23.804Z,0
2018-05-18T00:20:33.235Z,0
2018-05-18T00:21:42.125Z,0
2018-05-18T00:22:51.371Z,0
2018-05-18T00:24:00.538Z,0
2018-05-18T00:25:09.967Z,0
2018-05-18T00:26:19.385Z,0
2018-05-18T00:27:28.886Z,0
2018-05-18T00:28:38.308Z,0
2018-05-18T00:29:47.775Z,0
2018-05-18T00:30:57.713Z,0
2018-05-18T00:32:06.956Z,0
2018-05-18T00:33:16.939Z,0
2018-05-18T00:34:26.384Z,0
2018-05-18T00:35:36.049Z,0
2018-05-18T00:36:45.741Z,0
2018-05-18T00:37:55.180Z,0
2018-05-18T00:39:04.915Z,0
2018-05-18T00:40:14.349Z,0
2018-05-18T00:41:23.552Z,0
2018-05-18T00:42:33.257Z,0
2018-05-18T00:43:43.200Z,0
2018-05-18T00:44:52.916Z,0
2018-05-18T00:46:01.837Z,0
2018-05-18T00:47:11.530Z,0
2018-05-18T00:48:20.973Z,0
2018-05-18T00:49:30.418Z,0
2018-05-18T00:50:40.360Z,0
2018-05-18T00:51:49.527Z,0
2018-05-18T00:52:59.026Z,0
2018-05-18T00:54:08.455Z,0
2018-05-18T00:55:18.153Z,0
2018-05-18T00:56:27.858Z,0
2018-05-18T00:57:37.525Z,0
2018-05-18T00:58:46.708Z,0
2018-05-18T00:59:56.400Z,0
2018-05-18T01:01:05.303Z,0
2018-05-18T01:02:14.508Z,0
2018-05-18T01:03:23.938Z,0
2018-05-18T01:04:33.407Z,0
2018-05-18T01:05:42.864Z,0
2018-05-18T01:06:52.297Z,0
2018-05-18T01:08:01.742Z,0
2018-05-18T01:09:11.196Z,0
2018-05-18T01:10:20.445Z,0
2018-05-18T01:11:29.665Z,0
2018-05-18T01:12:39.395Z,0
2018-05-18T01:13:49.421Z,0
2018-05-18T01:14:58.678Z,0
2018-05-18T01:16:08.128Z,0
2018-05-18T01:17:17.828Z,0
2018-05-18T01:18:27.774Z,0
2018-05-18T01:19:37.479Z,0
2018-05-18T01:20:46.993Z,0
2018-05-18T01:21:56.171Z,0
2018-05-18T01:23:05.605Z,0
2018-05-18T01:24:15.300Z,0
2018-05-18T01:25:24.507Z,0
2018-05-18T01:26:34.276Z,0
2018-05-18T01:27:43.703Z,0
2018-05-18T01:28:52.848Z,0
2018-05-18T01:30:02.284Z,0
2018-05-18T01:31:12.002Z,0
2018-05-18T01:32:20.955Z,0
2018-05-18T01:33:30.395Z,0
2018-05-18T01:34:39.308Z,0
2018-05-18T01:35:48.760Z,0
2018-05-18T01:36:58.069Z,0
2018-05-18T01:38:07.066Z,0
2018-05-18T01:39:15.730Z,0
2018-05-18T01:40:25.449Z,0
2018-05-18T01:41:34.366Z,0
2018-05-18T01:42:44.047Z,0
2018-05-18T01:43:53.475Z,0
2018-05-18T01:45:03.181Z,0
2018-05-18T01:46:12.872Z,0
2018-05-18T01:47:22.287Z,0
2018-05-18T01:48:31.731Z,0
2018-05-18T01:49:41.409Z,0
2018-05-18T01:50:50.561Z,0
2018-05-18T01:52:00.493Z,0
2018-05-18T01:53:09.668Z,0
2018-05-18T01:54:19.392Z,0
2018-05-18T01:55:28.815Z,0
2018-05-18T01:56:37.711Z,0
2018-05-18T01:57:47.427Z,0
2018-05-18T01:58:56.855Z,0
2018-05-18T02:00:06.305Z,0
2018-05-18T02:01:15.503Z,0
2018-05-18T02:02:25.429Z,0
2018-05-18T02:03:35.179Z,0
2018-05-18T02:04:45.148Z,0
2018-05-18T02:05:54.854Z,0
2018-05-18T02:07:04.301Z,0
2018-05-18T02:08:13.714Z,0
2018-05-18T02:09:23.415Z,0
2018-05-18T02:10:32.844Z,0
2018-05-18T02:11:42.011Z,0
2018-05-18T02:12:51.218Z,0
2018-05-18T02:14:00.653Z,0
2018-05-18T02:15:10.091Z,0
2018-05-18T02:16:19.763Z,0
2018-05-18T02:17:28.992Z,0
2018-05-18T02:18:38.681Z,0
2018-05-18T02:19:48.367Z,0
2018-05-18T02:20:58.130Z,0
2018-05-18T02:22:07.581Z,0
2018-05-18T02:23:16.989Z,0
2018-05-18T02:24:26.424Z,0
2018-05-18T02:25:35.325Z,0
2018-05-18T02:26:45.008Z,0
2018-05-18T02:27:54.479Z,0
2018-05-18T02:29:03.674Z,0
2018-05-18T02:30:13.103Z,0
2018-05-18T02:31:22.527Z,0
2018-05-18T02:32:32.224Z,0
2018-05-18T02:33:41.950Z,0
2018-05-18T02:34:51.465Z,0
2018-05-18T02:36:01.213Z,0
2018-05-18T02:37:10.943Z,0
2018-05-18T02:38:20.406Z,0
2018-05-18T02:39:29.823Z,0
2018-05-18T02:40:39.331Z,0
2018-05-18T02:41:48.255Z,0
2018-05-18T02:42:57.693Z,0
2018-05-18T02:44:06.659Z,0
2018-05-18T02:45:15.823Z,0
2018-05-18T02:46:25.521Z,0
2018-05-18T02:47:35.559Z,0
2018-05-18T02:48:45.507Z,0
2018-05-18T02:49:54.981Z,0
2018-05-18T02:51:04.418Z,0
2018-05-18T02:52:14.139Z,0
2018-05-18T02:53:23.707Z,0
2018-05-18T02:54:32.882Z,0
2018-05-18T02:55:42.851Z,0
2018-05-18T02:56:52.833Z,0
2018-05-18T02:58:02.252Z,0
2018-05-18T02:59:12.000Z,0
2018-05-18T03:00:21.003Z,0
2018-05-18T03:01:30.432Z,0
2018-05-18T03:02:39.903Z,0
2018-05-18T03:03:49.426Z,0
2018-05-18T03:04:58.875Z,0
2018-05-18T03:06:08.340Z,0
2018-05-18T03:07:18.043Z,0
2018-05-18T03:08:27.227Z,0
2018-05-18T03:09:36.952Z,0
2018-05-18T03:10:46.143Z,0
2018-05-18T03:11:55.318Z,0
2018-05-18T03:13:05.005Z,0
2018-05-18T03:14:14.781Z,0
2018-05-18T03:15:23.682Z,0
2018-05-18T03:16:33.350Z,0
2018-05-18T03:17:42.256Z,0
2018-05-18T03:18:51.445Z,0
2018-05-18T03:20:01.145Z,0
2018-05-18T03:21:11.126Z,0
2018-05-18T03:22:21.050Z,0
2018-05-18T03:23:29.970Z,0
2018-05-18T03:24:39.128Z,0
2018-05-18T03:25:48.851Z,0
2018-05-18T03:26:57.557Z,0
2018-05-18T03:28:07.229Z,0
2018-05-18T03:29:16.922Z,0
2018-05-18T03:30:26.088Z,0
2018-05-18T03:31:35.533Z,0
2018-05-18T03:32:44.678Z,0
2018-05-18T03:33:54.136Z,0
2018-05-18T03:35:04.013Z,0
2018-05-18T03:36:13.434Z,0
2018-05-18T03:37:22.591Z,0
2018-05-18T03:38:32.557Z,0
2018-05-18T03:39:41.707Z,0
2018-05-18T03:40:51.139Z,0
2018-05-18T03:42:00.065Z,0
2018-05-18T03:43:09.518Z,0
2018-05-18T03:44:19.212Z,0
2018-05-18T03:45:28.399Z,0
2018-05-18T03:46:38.094Z,0
2018-05-18T03:47:47.783Z,0
2018-05-18T03:48:57.243Z,0
2018-05-18T03:50:06.700Z,0
2018-05-18T03:51:16.165Z,0
2018-05-18T03:52:25.363Z,0
2018-05-18T03:53:34.561Z,0
2018-05-18T03:54:43.728Z,0
2018-05-18T03:55:53.428Z,0
2018-05-18T03:57:02.845Z,0
2018-05-18T03:58:12.327Z,0
2018-05-18T03:59:22.104Z,0
2018-05-18T04:00:31.797Z,0
2018-05-18T04:01:40.992Z,0
2018-05-18T04:02:50.711Z,0
2018-05-18T04:04:00.385Z,0
2018-05-18T04:05:10.081Z,0
2018-05-18T04:06:19.355Z,0
2018-05-18T04:07:28.517Z,0
2018-05-18T04:08:37.993Z,0
2018-05-18T04:09:47.424Z,0
2018-05-18T04:10:57.123Z,0
2018-05-18T04:12:06.796Z,0
2018-05-18T04:13:15.962Z,0
2018-05-18T04:14:25.502Z,0
2018-05-18T04:15:35.177Z,0
2018-05-18T04:16:44.868Z,0
2018-05-18T04:17:53.805Z,0
2018-05-18T04:19:02.720Z,0
2018-05-18T04:20:11.659Z,0
2018-05-18T04:21:20.555Z,0
2018-05-18T04:22:29.986Z,0
2018-05-18T04:23:39.690Z,0
2018-05-18T04:24:49.143Z,0
2018-05-18T04:25:59.121Z,0
2018-05-18T04:27:08.865Z,0
2018-05-18T04:28:18.565Z,0
2018-05-18T04:29:27.743Z,0
2018-05-18T04:30:37.307Z,0
2018-05-18T04:31:46.610Z,0
2018-05-18T04:32:55.568Z,0
2018-05-18T04:34:05.312Z,0
2018-05-18T04:35:14.559Z,0
2018-05-18T04:36:23.415Z,0
2018-05-18T04:37:33.383Z,0
2018-05-18T04:38:42.818Z,0
2018-05-18T04:39:51.985Z,0
2018-05-18T04:41:01.433Z,0
2018-05-18T04:42:10.607Z,0
2018-05-18T04:43:20.368Z,0
2018-05-18T04:44:29.908Z,0
2018-05-18T04:45:39.617Z,0
2018-05-18T04:46:49.123Z,0
2018-05-18T04:47:58.790Z,0
2018-05-18T04:49:08.257Z,0
2018-05-18T04:50:17.964Z,0
2018-05-18T04:51:26.874Z,0
2018-05-18T04:52:36.072Z,0
2018-05-18T04:53:45.757Z,0
2018-05-18T04:54:55.448Z,0
2018-05-18T04:56:04.623Z,0
2018-05-18T04:57:14.593Z,0
2018-05-18T04:58:24.285Z,0
2018-05-18T04:59:33.539Z,0
2018-05-18T05:00:42.708Z,0
2018-05-18T05:01:52.189Z,0
2018-05-18T05:03:01.603Z,0
2018-05-18T05:04:11.287Z,0
2018-05-18T05:05:20.966Z,0
2018-05-18T05:06:30.411Z,0
2018-05-18T05:07:39.829Z,0
2018-05-18T05:08:49.010Z,0
2018-05-18T05:09:57.913Z,0
2018-05-18T05:11:07.354Z,0
2018-05-18T05:12:16.821Z,0
2018-05-18T05:13:26.224Z,0
2018-05-18T05:14:35.944Z,0
2018-05-18T05:15:45.118Z,0
2018-05-18T05:16:54.838Z,0
2018-05-18T05:18:04.902Z,0
2018-05-18T05:19:14.459Z,0
2018-05-18T05:20:24.172Z,0
2018-05-18T05:21:33.876Z,0
2018-05-18T05:23:02.498Z,0
2018-05-18T05:24:11.726Z,0
2018-05-18T05:25:20.920Z,4
2018-05-18T05:26:30.093Z,4
2018-05-18T05:27:39.530Z,4
2018-05-18T05:28:48.692Z,4
2018-05-18T05:29:58.409Z,4
2018-05-18T05:31:08.189Z,4
2018-05-18T05:32:17.637Z,4
2018-05-18T05:33:27.101Z,0
2018-05-18T05:34:36.347Z,0
2018-05-18T05:35:46.069Z,0
2018-05-18T05:36:55.755Z,0
2018-05-18T05:38:04.976Z,4
2018-05-18T05:39:14.447Z,4
2018-05-18T05:40:24.227Z,4
2018-05-18T05:41:33.956Z,4
2018-05-18T05:42:43.757Z,4
2018-05-18T05:43:53.204Z,4
2018-05-18T05:45:02.937Z,4
2018-05-18T05:46:12.620Z,0
2018-05-18T05:47:22.521Z,0
2018-05-18T05:48:31.973Z,4
2018-05-18T05:49:40.882Z,4
2018-05-18T05:50:50.052Z,4
2018-05-18T05:51:59.766Z,4
2018-05-18T05:53:09.216Z,4
2018-05-18T05:54:18.397Z,4
2018-05-18T05:55:28.346Z,4
2018-05-18T05:56:38.032Z,4
2018-05-18T05:57:47.718Z,4
2018-05-18T05:58:57.418Z,4
2018-05-18T06:00:06.893Z,0
2018-05-18T06:01:16.892Z,4
2018-05-18T06:02:26.318Z,4
2018-05-18T06:03:36.007Z,4
2018-05-18T06:04:45.492Z,4
2018-05-18T06:05:54.924Z,4
2018-05-18T06:07:04.369Z,4
2018-05-18T06:08:13.804Z,4
2018-05-18T06:09:23.235Z,4
2018-05-18T06:10:32.672Z,4
2018-05-18T06:11:41.944Z,4
2018-05-18T06:12:50.827Z,4
2018-05-18T06:13:59.734Z,4
2018-05-18T06:15:09.493Z,4
2018-05-18T06:16:19.175Z,4
2018-05-18T06:17:28.353Z,4
2018-05-18T06:18:37.782Z,4
2018-05-18T06:19:47.223Z,4
2018-05-18T06:20:56.909Z,4
2018-05-18T06:22:06.103Z,4
2018-05-18T06:23:15.245Z,4
2018-05-18T06:24:24.957Z,4
2018-05-18T06:25:34.414Z,8
2018-05-18T06:26:43.861Z,8
2018-05-18T06:27:52.789Z,8
2018-05-18T06:29:02.737Z,8
2018-05-18T06:30:11.690Z,8
2018-05-18T06:31:21.526Z,4
2018-05-18T06:32:31.226Z,4
2018-05-18T06:33:40.129Z,4
2018-05-18T06:34:49.957Z,4
2018-05-18T06:35:59.192Z,4
2018-05-18T06:37:08.499Z,4
2018-05-18T06:38:17.947Z,4
2018-05-18T06:39:27.401Z,8
2018-05-18T06:40:37.115Z,8
2018-05-18T06:41:46.338Z,8
2018-05-18T06:42:55.868Z,8
2018-05-18T06:44:05.370Z,4
2018-05-18T06:45:14.557Z,4
2018-05-18T06:46:24.250Z,4
2018-05-18T06:47:33.429Z,4
2018-05-18T06:48:42.381Z,4
2018-05-18T06:49:52.149Z,4
2018-05-18T06:51:01.590Z,8
2018-05-18T06:52:10.300Z,8
2018-05-18T06:53:19.505Z,8
2018-05-18T06:54:28.996Z,8
2018-05-18T06:55:38.446Z,8
2018-05-18T06:56:47.608Z,8
2018-05-18T06:57:57.337Z,4
2018-05-18T06:59:06.774Z,4
2018-05-18T07:00:15.681Z,8
2018-05-18T07:01:25.402Z,8
2018-05-18T07:02:35.115Z,8
2018-05-18T07:03:44.047Z,8
2018-05-18T07:04:53.733Z,8
2018-05-18T07:06:02.638Z,8
2018-05-18T07:07:11.829Z,8
2018-05-18T07:08:21.034Z,8
2018-05-18T07:09:30.733Z,4
2018-05-18T07:10:40.949Z,8
2018-05-18T07:11:50.435Z,8
2018-05-18T07:12:59.964Z,8
2018-05-18T07:14:09.398Z,8
2018-05-18T07:15:19.138Z,8
2018-05-18T07:16:29.042Z,8
2018-05-18T07:17:38.556Z,8
2018-05-18T07:18:48.296Z,8
2018-05-18T07:19:58.252Z,8
2018-05-18T07:21:07.436Z,8
2018-05-18T07:22:16.651Z,8
2018-05-18T07:23:25.548Z,8
2018-05-18T07:24:34.988Z,8
2018-05-18T07:25:44.160Z,8
2018-05-18T07:26:54.145Z,8
2018-05-18T07:28:03.313Z,8
2018-05-18T07:29:12.764Z,12
2018-05-18T07:30:21.999Z,12
2018-05-18T07:31:31.973Z,8
2018-05-18T07:32:41.394Z,8
2018-05-18T07:33:50.562Z,8
2018-05-18T07:34:59.981Z,12
2018-05-18T07:36:09.365Z,8
2018-05-18T07:37:18.788Z,8
2018-05-18T07:38:28.467Z,8
2018-05-18T07:39:37.897Z,12
2018-05-18T07:40:47.332Z,8
2018-05-18T07:41:56.530Z,12
2018-05-18T07:43:06.222Z,12
2018-05-18T07:44:16.159Z,8
2018-05-18T07:45:25.339Z,8
2018-05-18T07:46:34.816Z,12
2018-05-18T07:47:43.799Z,20
2018-05-18T07:48:52.724Z,20
2018-05-18T07:50:02.251Z,20
2018-05-18T07:51:11.828Z,24
2018-05-18T07:52:21.748Z,24
2018-05-18T07:53:31.454Z,12
2018-05-18T07:54:41.117Z,16
2018-05-18T07:55:50.545Z,20
2018-05-18T07:56:59.989Z,20
2018-05-18T07:58:09.199Z,20
2018-05-18T07:59:18.625Z,16
2018-05-18T08:00:28.093Z,8
2018-05-18T08:01:37.303Z,8
2018-05-18T08:02:46.493Z,8
2018-05-18T08:03:55.935Z,8
2018-05-18T08:05:05.600Z,8
2018-05-18T08:06:15.295Z,8
2018-05-18T08:07:24.593Z,12
2018-05-18T08:08:34.331Z,16
2018-05-18T08:09:44.024Z,20
2018-05-18T08:10:53.693Z,12
2018-05-18T08:12:02.879Z,12
2018-05-18T08:13:12.839Z,12
2018-05-18T08:14:22.376Z,16
2018-05-18T08:15:31.577Z,28
2018-05-18T08:16:40.799Z,16
2018-05-18T08:17:50.061Z,16
2018-05-18T08:18:59.852Z,12
2018-05-18T08:20:10.406Z,8
2018-05-18T08:21:19.613Z,8
2018-05-18T08:22:29.295Z,12
2018-05-18T08:23:38.920Z,12
2018-05-18T08:24:48.238Z,12
2018-05-18T08:25:57.995Z,8
2018-05-18T08:27:08.138Z,12
2018-05-18T08:28:17.636Z,12
2018-05-18T08:29:27.107Z,8
2018-05-18T08:30:36.402Z,8
2018-05-18T08:31:46.166Z,12
2018-05-18T08:32:55.651Z,12
2018-05-18T08:34:05.320Z,8
2018-05-18T08:35:14.776Z,12
2018-05-18T08:36:24.737Z,12
2018-05-18T08:37:33.909Z,12
2018-05-18T08:38:43.097Z,24
2018-05-18T08:39:52.535Z,8
2018-05-18T08:41:02.249Z,20
2018-05-18T08:42:11.691Z,28
2018-05-18T08:43:20.947Z,24
2018-05-18T08:44:30.631Z,24
2018-05-18T08:45:39.627Z,24
2018-05-18T08:46:49.089Z,16
2018-05-18T08:47:59.026Z,8
2018-05-18T08:49:08.204Z,8
2018-05-18T08:50:17.997Z,16
2018-05-18T08:51:27.479Z,24
2018-05-18T08:52:37.179Z,16
2018-05-18T08:53:46.369Z,16
2018-05-18T08:54:55.305Z,12
2018-05-18T08:56:04.506Z,8
2018-05-18T08:57:14.464Z,8
2018-05-18T08:58:24.451Z,24
2018-05-18T08:59:33.908Z,24
2018-05-18T09:00:43.516Z,28
2018-05-18T09:01:53.265Z,28
2018-05-18T09:03:02.445Z,28
2018-05-18T09:04:11.669Z,24
2018-05-18T09:05:21.380Z,12
2018-05-18T09:06:30.573Z,24
2018-05-18T09:07:40.266Z,12
2018-05-18T09:08:49.735Z,24
2018-05-18T09:09:59.186Z,16
2018-05-18T09:11:08.646Z,28
2018-05-18T09:12:18.675Z,24
2018-05-18T09:13:27.900Z,20
2018-05-18T09:14:37.328Z,24
2018-05-18T09:15:47.161Z,28
2018-05-18T09:16:56.916Z,28
2018-05-18T09:18:06.374Z,28
2018-05-18T09:19:16.101Z,28
2018-05-18T09:20:25.799Z,24
2018-05-18T09:21:35.049Z,20
2018-05-18T09:22:44.199Z,24
2018-05-18T09:23:52.885Z,24
2018-05-18T09:25:02.342Z,16
2018-05-18T09:26:11.307Z,20
2018-05-18T09:27:20.759Z,16
2018-05-18T09:28:29.959Z,24
2018-05-18T09:29:38.922Z,28
2018-05-18T09:30:48.888Z,24
2018-05-18T09:31:58.064Z,24
2018-05-18T09:33:07.886Z,24
2018-05-18T09:34:18.081Z,16
2018-05-18T09:35:27.572Z,16
2018-05-18T09:36:37.414Z,16
2018-05-18T09:37:46.640Z,12
2018-05-18T09:38:56.203Z,16
2018-05-18T09:40:05.715Z,20
2018-05-18T09:41:15.275Z,12
2018-05-18T09:42:24.815Z,12
2018-05-18T09:43:34.893Z,28
2018-05-18T09:44:43.874Z,24
2018-05-18T09:45:53.120Z,24
2018-05-18T09:47:02.873Z,24
2018-05-18T09:48:12.232Z,24
2018-05-18T09:49:22.050Z,20
2018-05-18T09:50:31.006Z,24
2018-05-18T09:51:40.260Z,20
2018-05-18T09:52:49.771Z,12
2018-05-18T09:53:59.258Z,20
2018-05-18T09:55:09.553Z,24
2018-05-18T09:56:19.597Z,24
2018-05-18T09:57:29.338Z,24
2018-05-18T09:58:38.663Z,24
2018-05-18T09:59:48.196Z,24
2018-05-18T10:00:57.689Z,28
2018-05-18T10:02:07.451Z,24
2018-05-18T10:03:16.684Z,24
2018-05-18T10:04:25.953Z,24
2018-05-18T10:05:34.918Z,12
2018-05-18T10:06:44.147Z,16
2018-05-18T10:07:53.371Z,12
2018-05-18T10:09:02.833Z,24
2018-05-18T10:10:12.339Z,12
2018-05-18T10:11:21.881Z,24
2018-05-18T10:12:31.812Z,20
2018-05-18T10:13:41.031Z,20
2018-05-18T10:14:50.597Z,20
2018-05-18T10:16:00.121Z,20
2018-05-18T10:17:10.050Z,24
2018-05-18T10:18:19.766Z,8
2018-05-18T10:19:28.482Z,12
2018-05-18T10:20:38.450Z,20
2018-05-18T10:21:47.690Z,16
2018-05-18T10:22:57.482Z,20
2018-05-18T10:24:07.018Z,20
2018-05-18T10:25:16.795Z,24
2018-05-18T10:26:26.390Z,24
2018-05-18T10:27:35.975Z,24
2018-05-18T10:28:45.665Z,20
2018-05-18T10:29:55.090Z,20
2018-05-18T10:31:04.640Z,20
2018-05-18T10:32:14.411Z,16
2018-05-18T10:33:23.582Z,20
2018-05-18T10:34:33.313Z,20
2018-05-18T10:35:42.481Z,24
2018-05-18T10:36:51.410Z,20
2018-05-18T10:38:00.569Z,20
2018-05-18T10:39:09.771Z,16
2018-05-18T10:40:18.943Z,16
2018-05-18T10:41:28.151Z,20
2018-05-18T10:42:37.835Z,20
2018-05-18T10:43:46.812Z,20
2018-05-18T10:44:56.704Z,20
2018-05-18T10:46:06.159Z,20
2018-05-18T10:47:15.380Z,20
2018-05-18T10:48:24.590Z,20
2018-05-18T10:49:34.865Z,20
2018-05-18T10:50:44.288Z,16
2018-05-18T10:51:53.763Z,16
2018-05-18T10:53:02.882Z,20
2018-05-18T10:54:12.335Z,20
2018-05-18T10:55:21.533Z,20
2018-05-18T10:56:30.985Z,20
2018-05-18T10:57:40.921Z,20
2018-05-18T10:58:50.624Z,24
2018-05-18T11:00:00.337Z,20
2018-05-18T11:01:09.773Z,24
2018-05-18T11:02:19.508Z,20
2018-05-18T11:03:29.510Z,20
2018-05-18T11:04:38.676Z,20
2018-05-18T11:05:47.863Z,20
2018-05-18T11:06:57.746Z,20
2018-05-18T11:08:07.930Z,20
2018-05-18T11:09:17.661Z,20
2018-05-18T11:10:27.411Z,20
2018-05-18T11:11:36.636Z,20
2018-05-18T11:12:46.113Z,20
2018-05-18T11:13:56.051Z,16
2018-05-18T11:15:05.449Z,16
2018-05-18T11:16:14.633Z,20
2018-05-18T11:17:24.389Z,16
2018-05-18T11:18:33.831Z,20
2018-05-18T11:19:43.284Z,16
2018-05-18T11:20:52.192Z,16
2018-05-18T11:22:01.115Z,16
2018-05-18T11:23:11.022Z,16
2018-05-18T11:24:20.482Z,16
2018-05-18T11:25:30.179Z,20
2018-05-18T11:26:39.376Z,12
2018-05-18T11:27:49.482Z,20
2018-05-18T11:28:59.239Z,16
2018-05-18T11:30:08.914Z,16
2018-05-18T11:31:18.603Z,16
2018-05-18T11:32:28.591Z,16
2018-05-18T11:33:38.001Z,16
2018-05-18T11:34:47.473Z,16
2018-05-18T11:35:56.980Z,16
2018-05-18T11:37:06.405Z,16
2018-05-18T11:38:15.567Z,20
2018-05-18T11:39:24.511Z,20
2018-05-18T11:40:34.212Z,20
2018-05-18T11:41:43.908Z,20
2018-05-18T11:42:53.602Z,20
2018-05-18T11:44:02.817Z,20
2018-05-18T11:45:12.231Z,20
2018-05-18T11:46:21.647Z,20
2018-05-18T11:47:31.334Z,20
2018-05-18T11:48:41.003Z,20
2018-05-18T11:49:50.460Z,20
2018-05-18T11:50:59.619Z,24
2018-05-18T11:52:09.336Z,24
2018-05-18T11:53:19.056Z,24
2018-05-18T11:54:28.771Z,24
2018-05-18T11:55:39.022Z,20
2018-05-18T11:56:49.120Z,20
2018-05-18T11:57:58.531Z,20
2018-05-18T11:59:07.703Z,20
2018-05-18T12:00:17.447Z,20
2018-05-18T12:01:26.915Z,20
2018-05-18T12:02:35.919Z,20
2018-05-18T12:03:45.325Z,20
2018-05-18T12:04:55.134Z,8
2018-05-18T12:06:04.294Z,12
2018-05-18T12:07:13.724Z,20
2018-05-18T12:08:23.088Z,20
2018-05-18T12:09:32.500Z,20
2018-05-18T12:10:41.929Z,20
2018-05-18T12:11:51.356Z,24
2018-05-18T12:13:00.543Z,20
2018-05-18T12:14:10.127Z,20
2018-05-18T12:15:19.724Z,20
2018-05-18T12:16:29.447Z,24
2018-05-18T12:17:39.368Z,20
2018-05-18T12:18:48.580Z,24
2018-05-18T12:19:57.554Z,20
2018-05-18T12:21:07.039Z,20
2018-05-18T12:22:16.760Z,20
2018-05-18T12:23:26.273Z,20
2018-05-18T12:24:35.226Z,20
2018-05-18T12:25:44.453Z,24
2018-05-18T12:26:53.919Z,24
2018-05-18T12:28:03.093Z,28
2018-05-18T12:29:12.518Z,24
2018-05-18T12:30:22.498Z,28
2018-05-18T12:31:31.910Z,28
2018-05-18T12:32:41.749Z,32
2018-05-18T12:33:51.225Z,28
2018-05-18T12:35:00.188Z,32
2018-05-18T12:36:09.708Z,32
2018-05-18T12:37:19.144Z,32
2018-05-18T12:38:29.068Z,36
2018-05-18T12:39:38.546Z,32
2018-05-18T12:40:47.784Z,28
2018-05-18T12:41:56.887Z,32
2018-05-18T12:43:06.728Z,32
2018-05-18T12:44:16.179Z,32
2018-05-18T12:45:25.091Z,36
2018-05-18T12:46:34.473Z,32
2018-05-18T12:47:44.202Z,32
2018-05-18T12:48:53.686Z,32
2018-05-18T12:50:02.888Z,36
2018-05-18T12:51:12.976Z,36
2018-05-18T12:52:22.456Z,32
2018-05-18T12:53:31.959Z,36
2018-05-18T12:54:41.450Z,36
2018-05-18T12:55:51.351Z,36
2018-05-18T12:57:00.599Z,36
2018-05-18T12:58:09.642Z,36
2018-05-18T12:59:19.415Z,40
2018-05-18T13:00:29.162Z,36
2018-05-18T13:01:38.620Z,40
2018-05-18T13:02:48.099Z,40
2018-05-18T13:03:57.872Z,36
2018-05-18T13:05:07.159Z,40
2018-05-18T13:06:16.921Z,40
2018-05-18T13:07:26.119Z,40
2018-05-18T13:08:35.793Z,40
2018-05-18T13:09:45.303Z,40
2018-05-18T13:10:55.164Z,44
2018-05-18T13:12:04.441Z,44
2018-05-18T13:13:13.647Z,44
2018-05-18T13:14:23.116Z,44
2018-05-18T13:15:33.076Z,44
2018-05-18T13:16:42.335Z,40
2018-05-18T13:17:51.829Z,40
2018-05-18T13:19:01.008Z,36
2018-05-18T13:20:10.705Z,36
2018-05-18T13:21:19.904Z,40
2018-05-18T13:22:29.349Z,40
2018-05-18T13:23:39.050Z,40
2018-05-18T13:24:48.895Z,40
2018-05-18T13:25:58.338Z,36
2018-05-18T13:27:07.596Z,36
2018-05-18T13:28:17.126Z,28
2018-05-18T13:29:26.541Z,28
2018-05-18T13:30:36.722Z,32
2018-05-18T13:31:46.586Z,32
2018-05-18T13:32:56.060Z,32
2018-05-18T13:34:05.802Z,32
2018-05-18T13:35:15.582Z,32
2018-05-18T13:36:25.309Z,36
2018-05-18T13:37:34.747Z,40
2018-05-18T13:38:44.695Z,40
2018-05-18T13:39:53.960Z,36
2018-05-18T13:41:03.140Z,36
2018-05-18T13:42:12.368Z,40
2018-05-18T13:43:21.557Z,40
2018-05-18T13:44:31.105Z,20
2018-05-18T13:45:41.217Z,28
2018-05-18T13:46:50.916Z,16
2018-05-18T13:47:59.864Z,16
2018-05-18T13:49:09.113Z,32
2018-05-18T13:50:18.795Z,40
2018-05-18T13:51:28.533Z,52
2018-05-18T13:52:38.292Z,48
2018-05-18T13:53:48.255Z,56
2018-05-18T13:54:57.481Z,52
2018-05-18T13:56:07.197Z,52
2018-05-18T13:57:17.170Z,48
2018-05-18T13:58:26.460Z,52
2018-05-18T13:59:36.399Z,44
2018-05-18T14:00:45.583Z,52
2018-05-18T14:01:55.102Z,40
2018-05-18T14:03:05.135Z,48
2018-05-18T14:04:14.611Z,48
2018-05-18T14:05:23.806Z,48
2018-05-18T14:06:33.497Z,40
2018-05-18T14:07:42.958Z,40
2018-05-18T14:08:51.959Z,44
2018-05-18T14:10:01.392Z,40
2018-05-18T14:11:10.425Z,36
2018-05-18T14:12:19.382Z,40
2018-05-18T14:13:28.837Z,44
2018-05-18T14:14:37.798Z,48
2018-05-18T14:15:47.003Z,48
2018-05-18T14:16:55.965Z,44
2018-05-18T14:18:05.133Z,44
2018-05-18T14:19:14.585Z,40
2018-05-18T14:20:24.081Z,36
2018-05-18T14:21:33.831Z,36
2018-05-18T14:22:43.561Z,36
2018-05-18T14:23:53.335Z,32
2018-05-18T14:25:02.312Z,36
2018-05-18T14:26:11.020Z,40
2018-05-18T14:27:20.533Z,36
2018-05-18T14:28:30.290Z,36
2018-05-18T14:29:39.214Z,32
2018-05-18T14:30:48.924Z,28
2018-05-18T14:31:58.605Z,28
2018-05-18T14:33:07.801Z,28
2018-05-18T14:34:17.257Z,24
2018-05-18T14:35:26.470Z,32
2018-05-18T14:36:35.908Z,24
2018-05-18T14:37:45.470Z,20
2018-05-18T14:38:54.655Z,20
2018-05-18T14:40:03.835Z,24
2018-05-18T14:41:12.746Z,24
2018-05-18T14:42:21.919Z,24
2018-05-18T14:43:31.082Z,28
2018-05-18T14:44:40.252Z,24
2018-05-18T14:45:49.699Z,24
2018-05-18T14:46:59.386Z,24
2018-05-18T14:48:08.723Z,24
2018-05-18T14:49:18.682Z,24
2018-05-18T14:50:28.168Z,24
2018-05-18T14:51:38.189Z,24
2018-05-18T14:52:47.859Z,24
2018-05-18T14:53:57.629Z,20
2018-05-18T14:55:07.348Z,24
2018-05-18T14:56:17.094Z,20
2018-05-18T14:57:26.807Z,20
2018-05-18T14:58:36.107Z,20
2018-05-18T14:59:45.350Z,20
2018-05-18T15:00:55.301Z,20
2018-05-18T15:02:04.783Z,20
2018-05-18T15:03:14.548Z,20
2018-05-18T15:04:23.447Z,16
2018-05-18T15:05:33.157Z,16
2018-05-18T15:06:42.945Z,12
2018-05-18T15:07:52.629Z,12
2018-05-18T15:09:02.350Z,12
2018-05-18T15:10:11.517Z,8
2018-05-18T15:11:20.973Z,12
2018-05-18T15:12:30.671Z,8
2018-05-18T15:13:40.451Z,8
2018-05-18T15:14:49.857Z,8
2018-05-18T15:15:58.770Z,8
2018-05-18T15:17:08.209Z,8
2018-05-18T15:18:17.873Z,8
2018-05-18T15:19:27.574Z,8
2018-05-18T15:20:37.279Z,8
2018-05-18T15:21:46.993Z,8
2018-05-18T15:22:56.468Z,8
2018-05-18T15:24:05.967Z,8
2018-05-18T15:25:15.212Z,8
2018-05-18T15:26:24.562Z,8
2018-05-18T15:27:34.274Z,8
2018-05-18T15:28:44.220Z,8
2018-05-18T15:29:54.009Z,8
2018-05-18T15:31:03.688Z,8
2018-05-18T15:32:13.125Z,8
2018-05-18T15:33:22.574Z,8
2018-05-18T15:34:32.291Z,8
2018-05-18T15:35:41.725Z,8
2018-05-18T15:36:51.181Z,8
2018-05-18T15:38:00.868Z,8
2018-05-18T15:39:10.317Z,8
2018-05-18T15:40:20.112Z,8
2018-05-18T15:41:29.846Z,8
2018-05-18T15:42:39.430Z,8
2018-05-18T15:43:48.884Z,8
2018-05-18T15:44:58.552Z,8
2018-05-18T15:46:08.313Z,8
2018-05-18T15:47:18.040Z,8
2018-05-18T15:48:27.498Z,8
2018-05-18T15:49:37.237Z,8
2018-05-18T15:50:46.939Z,8
2018-05-18T15:51:56.684Z,8
2018-05-18T15:53:06.274Z,8
2018-05-18T15:54:15.719Z,8
2018-05-18T15:55:24.905Z,8
2018-05-18T15:56:34.616Z,8
2018-05-18T15:57:44.316Z,8
2018-05-18T15:58:54.040Z,8
2018-05-18T16:00:04.411Z,8
2018-05-18T16:01:14.122Z,8
2018-05-18T16:02:23.337Z,8
2018-05-18T16:03:32.793Z,8
2018-05-18T16:04:41.736Z,4
2018-05-18T16:05:51.164Z,4
2018-05-18T16:07:00.952Z,4
2018-05-18T16:08:11.248Z,4
2018-05-18T16:09:20.411Z,8
2018-05-18T16:10:30.343Z,8
2018-05-18T16:11:39.766Z,8
2018-05-18T16:12:49.551Z,8
2018-05-18T16:13:59.449Z,8
2018-05-18T16:15:08.895Z,8
2018-05-18T16:16:18.366Z,8
2018-05-18T16:17:27.364Z,4
2018-05-18T16:18:37.091Z,8
2018-05-18T16:19:46.793Z,8
2018-05-18T16:20:56.313Z,8
2018-05-18T16:22:06.380Z,8
2018-05-18T16:23:15.284Z,8
2018-05-18T16:24:24.433Z,4
2018-05-18T16:25:33.619Z,4
2018-05-18T16:26:43.309Z,4
2018-05-18T16:27:52.928Z,4
2018-05-18T16:29:03.034Z,8
2018-05-18T16:30:12.730Z,12
2018-05-18T16:31:22.490Z,8
2018-05-18T16:32:31.937Z,8
2018-05-18T16:33:45.636Z,8
2018-05-18T16:34:56.089Z,8
2018-05-18T16:36:05.530Z,8
2018-05-18T16:37:15.207Z,8
2018-05-18T16:38:24.165Z,8
2018-05-18T16:39:33.873Z,8
2018-05-18T16:40:43.363Z,8
2018-05-18T16:41:53.195Z,8
2018-05-18T16:43:02.649Z,8
2018-05-18T16:44:12.363Z,8
2018-05-18T16:45:21.883Z,8
2018-05-18T16:46:30.842Z,8
2018-05-18T16:47:40.305Z,8
2018-05-18T16:48:49.845Z,8
2018-05-18T16:49:58.769Z,8
2018-05-18T16:51:07.967Z,8
2018-05-18T16:52:17.607Z,8